sensor_id;sensor_type;location;lat;lon;timestamp;P1;durP1;ratioP1;P2;durP2;ratioP2
33475;SDS011;19814;48.224;11.422;2023-08-12T00:02:11;5.65;;;2.40;;
33475;SDS011;19814;48.224;11.422;2023-08-12T00:04:37;3.45;;;2.00;;
33475;SDS011;19814;48.224;11.422;2023-08-12T00:07:02;2.65;;;1.65;;
33475;SDS011;19814;48.224;11.422;2023-08-12T00:09:28;3.58;;;1.70;;
33475;SDS011;19814;48.224;11.422;2023-08-12T00:11:53;2.55;;;1.40;;
33475;SDS011;19814;48.224;11.422;2023-08-12T00:14:19;3.13;;;1.95;;
33475;SDS011;19814;48.224;11.422;2023-08-12T00:16:44;6.07;;;2.83;;
33475;SDS011;19814;48.224;11.422;2023-08-12T00:19:10;6.20;;;2.95;;
33475;SDS011;19814;48.224;11.422;2023-08-12T00:21:35;6.75;;;2.75;;
33475;SDS011;19814;48.224;11.422;2023-08-12T00:24:01;3.92;;;2.45;;
33475;SDS011;19814;48.224;11.422;2023-08-12T00:26:26;4.55;;;2.70;;
33475;SDS011;19814;48.224;11.422;2023-08-12T00:28:52;6.03;;;2.90;;
33475;SDS011;19814;48.224;11.422;2023-08-12T00:31:18;4.90;;;2.85;;
33475;SDS011;19814;48.224;11.422;2023-08-12T00:33:43;5.68;;;3.00;;
33475;SDS011;19814;48.224;11.422;2023-08-12T00:36:09;6.28;;;2.75;;
33475;SDS011;19814;48.224;11.422;2023-08-12T00:38:34;4.13;;;2.67;;
33475;SDS011;19814;48.224;11.422;2023-08-12T00:41:00;5.53;;;2.78;;
33475;SDS011;19814;48.224;11.422;2023-08-12T00:43:25;3.85;;;2.22;;
33475;SDS011;19814;48.224;11.422;2023-08-12T00:45:51;4.72;;;2.58;;
33475;SDS011;19814;48.224;11.422;2023-08-12T00:48:17;5.32;;;3.00;;
33475;SDS011;19814;48.224;11.422;2023-08-12T00:50:43;5.32;;;3.30;;
33475;SDS011;19814;48.224;11.422;2023-08-12T00:53:09;6.07;;;2.83;;
33475;SDS011;19814;48.224;11.422;2023-08-12T00:55:36;7.82;;;3.13;;
33475;SDS011;19814;48.224;11.422;2023-08-12T00:58:02;5.50;;;2.95;;
33475;SDS011;19814;48.224;11.422;2023-08-12T01:00:29;4.50;;;2.72;;
33475;SDS011;19814;48.224;11.422;2023-08-12T01:02:56;6.13;;;3.20;;
33475;SDS011;19814;48.224;11.422;2023-08-12T01:05:22;5.30;;;3.22;;
33475;SDS011;19814;48.224;11.422;2023-08-12T01:07:48;5.25;;;3.08;;
33475;SDS011;19814;48.224;11.422;2023-08-12T01:10:13;5.13;;;3.03;;
33475;SDS011;19814;48.224;11.422;2023-08-12T01:12:44;6.75;;;3.22;;
33475;SDS011;19814;48.224;11.422;2023-08-12T01:15:20;4.85;;;3.10;;
33475;SDS011;19814;48.224;11.422;2023-08-12T01:17:47;6.97;;;3.38;;
33475;SDS011;19814;48.224;11.422;2023-08-12T01:20:17;5.78;;;3.47;;
33475;SDS011;19814;48.224;11.422;2023-08-12T01:22:49;5.93;;;3.03;;
33475;SDS011;19814;48.224;11.422;2023-08-12T01:25:22;7.00;;;2.70;;
33475;SDS011;19814;48.224;11.422;2023-08-12T01:27:49;5.13;;;2.80;;
33475;SDS011;19814;48.224;11.422;2023-08-12T01:30:14;7.82;;;3.05;;
33475;SDS011;19814;48.224;11.422;2023-08-12T01:35:35;4.80;;;3.13;;
33475;SDS011;19814;48.224;11.422;2023-08-12T01:38:05;5.70;;;3.15;;
33475;SDS011;19814;48.224;11.422;2023-08-12T01:40:33;5.15;;;3.10;;
33475;SDS011;19814;48.224;11.422;2023-08-12T01:43:00;6.35;;;3.33;;
33475;SDS011;19814;48.224;11.422;2023-08-12T01:45:26;7.07;;;3.63;;
33475;SDS011;19814;48.224;11.422;2023-08-12T01:47:52;6.05;;;3.38;;
33475;SDS011;19814;48.224;11.422;2023-08-12T01:50:17;6.88;;;3.40;;
33475;SDS011;19814;48.224;11.422;2023-08-12T01:52:44;6.18;;;3.03;;
33475;SDS011;19814;48.224;11.422;2023-08-12T01:55:09;4.90;;;2.85;;
33475;SDS011;19814;48.224;11.422;2023-08-12T01:57:35;4.22;;;2.40;;
33475;SDS011;19814;48.224;11.422;2023-08-12T02:00:01;4.78;;;2.17;;
33475;SDS011;19814;48.224;11.422;2023-08-12T02:02:27;3.53;;;2.10;;
33475;SDS011;19814;48.224;11.422;2023-08-12T02:04:53;3.75;;;2.13;;
33475;SDS011;19814;48.224;11.422;2023-08-12T02:07:18;4.10;;;2.70;;
33475;SDS011;19814;48.224;11.422;2023-08-12T02:09:44;3.53;;;2.30;;
33475;SDS011;19814;48.224;11.422;2023-08-12T02:12:09;3.00;;;2.22;;
33475;SDS011;19814;48.224;11.422;2023-08-12T02:14:35;3.72;;;2.40;;
33475;SDS011;19814;48.224;11.422;2023-08-12T02:17:01;3.80;;;2.50;;
33475;SDS011;19814;48.224;11.422;2023-08-12T02:19:30;6.03;;;2.35;;
33475;SDS011;19814;48.224;11.422;2023-08-12T02:21:56;3.33;;;2.30;;
33475;SDS011;19814;48.224;11.422;2023-08-12T02:24:22;5.00;;;2.90;;
33475;SDS011;19814;48.224;11.422;2023-08-12T02:26:47;5.80;;;2.80;;
33475;SDS011;19814;48.224;11.422;2023-08-12T02:29:13;6.00;;;2.88;;
33475;SDS011;19814;48.224;11.422;2023-08-12T02:31:38;5.03;;;3.30;;
33475;SDS011;19814;48.224;11.422;2023-08-12T02:34:04;5.13;;;3.45;;
33475;SDS011;19814;48.224;11.422;2023-08-12T02:36:29;5.18;;;3.00;;
33475;SDS011;19814;48.224;11.422;2023-08-12T02:38:55;5.25;;;2.97;;
33475;SDS011;19814;48.224;11.422;2023-08-12T02:41:20;4.50;;;2.70;;
33475;SDS011;19814;48.224;11.422;2023-08-12T02:43:46;6.03;;;2.75;;
33475;SDS011;19814;48.224;11.422;2023-08-12T02:46:12;4.00;;;2.75;;
33475;SDS011;19814;48.224;11.422;2023-08-12T02:48:40;6.05;;;2.50;;
33475;SDS011;19814;48.224;11.422;2023-08-12T02:51:05;4.95;;;3.03;;
33475;SDS011;19814;48.224;11.422;2023-08-12T02:53:31;5.22;;;2.85;;
33475;SDS011;19814;48.224;11.422;2023-08-12T02:55:56;5.65;;;3.22;;
33475;SDS011;19814;48.224;11.422;2023-08-12T02:58:22;6.28;;;3.40;;
33475;SDS011;19814;48.224;11.422;2023-08-12T03:00:47;4.78;;;3.20;;
33475;SDS011;19814;48.224;11.422;2023-08-12T03:03:13;5.10;;;2.85;;
33475;SDS011;19814;48.224;11.422;2023-08-12T03:05:38;5.75;;;3.10;;
33475;SDS011;19814;48.224;11.422;2023-08-12T03:08:05;4.15;;;2.70;;
33475;SDS011;19814;48.224;11.422;2023-08-12T03:10:32;7.18;;;2.90;;
33475;SDS011;19814;48.224;11.422;2023-08-12T03:12:59;4.90;;;2.40;;
33475;SDS011;19814;48.224;11.422;2023-08-12T03:15:24;5.45;;;2.65;;
33475;SDS011;19814;48.224;11.422;2023-08-12T03:17:50;5.07;;;2.60;;
33475;SDS011;19814;48.224;11.422;2023-08-12T03:20:15;4.88;;;2.47;;
33475;SDS011;19814;48.224;11.422;2023-08-12T03:22:41;4.55;;;2.58;;
33475;SDS011;19814;48.224;11.422;2023-08-12T03:25:06;5.97;;;2.35;;
33475;SDS011;19814;48.224;11.422;2023-08-12T03:27:32;5.20;;;2.80;;
33475;SDS011;19814;48.224;11.422;2023-08-12T03:29:58;4.85;;;2.85;;
33475;SDS011;19814;48.224;11.422;2023-08-12T03:32:24;5.18;;;3.15;;
33475;SDS011;19814;48.224;11.422;2023-08-12T03:34:50;5.15;;;2.90;;
33475;SDS011;19814;48.224;11.422;2023-08-12T03:37:16;4.15;;;2.30;;
33475;SDS011;19814;48.224;11.422;2023-08-12T03:39:41;4.30;;;2.38;;
33475;SDS011;19814;48.224;11.422;2023-08-12T03:42:07;4.00;;;2.40;;
33475;SDS011;19814;48.224;11.422;2023-08-12T03:44:32;4.50;;;2.83;;
33475;SDS011;19814;48.224;11.422;2023-08-12T03:46:58;4.85;;;3.05;;
33475;SDS011;19814;48.224;11.422;2023-08-12T03:49:23;5.22;;;2.72;;
33475;SDS011;19814;48.224;11.422;2023-08-12T03:51:49;4.13;;;2.55;;
33475;SDS011;19814;48.224;11.422;2023-08-12T03:54:14;5.82;;;2.67;;
33475;SDS011;19814;48.224;11.422;2023-08-12T03:56:40;3.70;;;2.17;;
33475;SDS011;19814;48.224;11.422;2023-08-12T03:59:05;2.72;;;1.65;;
33475;SDS011;19814;48.224;11.422;2023-08-12T04:01:31;4.38;;;1.80;;
33475;SDS011;19814;48.224;11.422;2023-08-12T04:03:57;3.47;;;1.70;;
33475;SDS011;19814;48.224;11.422;2023-08-12T04:06:22;3.10;;;1.95;;
33475;SDS011;19814;48.224;11.422;2023-08-12T04:08:48;5.00;;;2.28;;
33475;SDS011;19814;48.224;11.422;2023-08-12T04:11:13;3.72;;;2.33;;
33475;SDS011;19814;48.224;11.422;2023-08-12T04:13:39;4.60;;;2.30;;
33475;SDS011;19814;48.224;11.422;2023-08-12T04:16:04;4.18;;;2.30;;
33475;SDS011;19814;48.224;11.422;2023-08-12T04:18:30;4.13;;;2.40;;
33475;SDS011;19814;48.224;11.422;2023-08-12T04:20:55;3.53;;;2.40;;
33475;SDS011;19814;48.224;11.422;2023-08-12T04:23:21;4.07;;;2.58;;
33475;SDS011;19814;48.224;11.422;2023-08-12T04:25:47;3.55;;;2.42;;
33475;SDS011;19814;48.224;11.422;2023-08-12T04:28:13;4.53;;;2.75;;
33475;SDS011;19814;48.224;11.422;2023-08-12T04:30:41;5.93;;;3.15;;
33475;SDS011;19814;48.224;11.422;2023-08-12T04:33:10;5.25;;;2.90;;
33475;SDS011;19814;48.224;11.422;2023-08-12T04:35:37;5.63;;;3.10;;
33475;SDS011;19814;48.224;11.422;2023-08-12T04:38:03;4.95;;;2.75;;
33475;SDS011;19814;48.224;11.422;2023-08-12T04:40:28;4.78;;;2.80;;
33475;SDS011;19814;48.224;11.422;2023-08-12T04:42:54;3.92;;;2.30;;
33475;SDS011;19814;48.224;11.422;2023-08-12T04:45:20;3.97;;;2.30;;
33475;SDS011;19814;48.224;11.422;2023-08-12T04:47:45;4.47;;;2.40;;
33475;SDS011;19814;48.224;11.422;2023-08-12T04:50:11;4.47;;;2.67;;
33475;SDS011;19814;48.224;11.422;2023-08-12T04:52:36;4.47;;;2.70;;
33475;SDS011;19814;48.224;11.422;2023-08-12T04:55:02;6.15;;;3.25;;
33475;SDS011;19814;48.224;11.422;2023-08-12T04:57:28;5.53;;;3.20;;
33475;SDS011;19814;48.224;11.422;2023-08-12T04:59:54;5.78;;;3.50;;
33475;SDS011;19814;48.224;11.422;2023-08-12T05:02:20;6.35;;;3.63;;
33475;SDS011;19814;48.224;11.422;2023-08-12T05:04:49;6.13;;;2.85;;
33475;SDS011;19814;48.224;11.422;2023-08-12T05:07:16;5.32;;;2.75;;
33475;SDS011;19814;48.224;11.422;2023-08-12T05:09:42;5.75;;;3.22;;
33475;SDS011;19814;48.224;11.422;2023-08-12T05:12:11;6.00;;;3.67;;
33475;SDS011;19814;48.224;11.422;2023-08-12T05:14:37;5.20;;;3.53;;
33475;SDS011;19814;48.224;11.422;2023-08-12T05:17:04;5.13;;;3.25;;
33475;SDS011;19814;48.224;11.422;2023-08-12T05:19:30;5.53;;;3.60;;
33475;SDS011;19814;48.224;11.422;2023-08-12T05:21:56;7.57;;;3.53;;
33475;SDS011;19814;48.224;11.422;2023-08-12T05:24:22;6.72;;;4.13;;
33475;SDS011;19814;48.224;11.422;2023-08-12T05:26:47;6.90;;;4.00;;
33475;SDS011;19814;48.224;11.422;2023-08-12T05:29:13;5.82;;;3.58;;
33475;SDS011;19814;48.224;11.422;2023-08-12T05:31:38;6.68;;;4.47;;
33475;SDS011;19814;48.224;11.422;2023-08-12T05:34:04;6.93;;;3.80;;
33475;SDS011;19814;48.224;11.422;2023-08-12T05:36:29;5.47;;;3.78;;
33475;SDS011;19814;48.224;11.422;2023-08-12T05:38:55;6.65;;;3.90;;
33475;SDS011;19814;48.224;11.422;2023-08-12T05:41:21;7.85;;;4.22;;
33475;SDS011;19814;48.224;11.422;2023-08-12T05:43:47;6.10;;;4.03;;
33475;SDS011;19814;48.224;11.422;2023-08-12T05:46:13;7.75;;;4.53;;
33475;SDS011;19814;48.224;11.422;2023-08-12T05:48:39;7.10;;;4.18;;
33475;SDS011;19814;48.224;11.422;2023-08-12T05:51:04;7.00;;;4.68;;
33475;SDS011;19814;48.224;11.422;2023-08-12T05:53:30;6.82;;;4.13;;
33475;SDS011;19814;48.224;11.422;2023-08-12T05:55:57;8.63;;;4.47;;
33475;SDS011;19814;48.224;11.422;2023-08-12T05:58:22;7.10;;;4.72;;
33475;SDS011;19814;48.224;11.422;2023-08-12T06:00:48;6.68;;;4.15;;
33475;SDS011;19814;48.224;11.422;2023-08-12T06:03:13;5.85;;;3.85;;
33475;SDS011;19814;48.224;11.422;2023-08-12T06:05:40;11.35;;;4.93;;
33475;SDS011;19814;48.224;11.422;2023-08-12T06:08:06;8.20;;;4.57;;
33475;SDS011;19814;48.224;11.422;2023-08-12T06:10:32;7.60;;;3.85;;
33475;SDS011;19814;48.224;11.422;2023-08-12T06:12:58;6.55;;;3.95;;
33475;SDS011;19814;48.224;11.422;2023-08-12T06:15:24;7.80;;;4.32;;
33475;SDS011;19814;48.224;11.422;2023-08-12T06:17:49;7.85;;;4.28;;
33475;SDS011;19814;48.224;11.422;2023-08-12T06:20:15;7.20;;;4.07;;
33475;SDS011;19814;48.224;11.422;2023-08-12T06:22:40;5.47;;;3.50;;
33475;SDS011;19814;48.224;11.422;2023-08-12T06:25:06;7.72;;;4.00;;
33475;SDS011;19814;48.224;11.422;2023-08-12T06:27:32;6.53;;;3.53;;
33475;SDS011;19814;48.224;11.422;2023-08-12T06:29:57;6.28;;;3.50;;
33475;SDS011;19814;48.224;11.422;2023-08-12T06:32:23;7.05;;;3.97;;
33475;SDS011;19814;48.224;11.422;2023-08-12T06:34:48;6.60;;;3.60;;
33475;SDS011;19814;48.224;11.422;2023-08-12T06:37:14;5.63;;;3.53;;
33475;SDS011;19814;48.224;11.422;2023-08-12T06:39:39;5.72;;;3.70;;
33475;SDS011;19814;48.224;11.422;2023-08-12T06:42:05;5.97;;;3.60;;
33475;SDS011;19814;48.224;11.422;2023-08-12T06:44:31;5.45;;;3.22;;
33475;SDS011;19814;48.224;11.422;2023-08-12T06:46:56;7.28;;;3.63;;
33475;SDS011;19814;48.224;11.422;2023-08-12T06:49:22;5.82;;;3.90;;
33475;SDS011;19814;48.224;11.422;2023-08-12T06:51:47;6.25;;;3.83;;
33475;SDS011;19814;48.224;11.422;2023-08-12T06:54:13;5.78;;;3.75;;
33475;SDS011;19814;48.224;11.422;2023-08-12T06:56:38;7.93;;;3.55;;
33475;SDS011;19814;48.224;11.422;2023-08-12T06:59:04;5.70;;;3.72;;
33475;SDS011;19814;48.224;11.422;2023-08-12T07:01:29;6.78;;;4.03;;
33475;SDS011;19814;48.224;11.422;2023-08-12T07:03:55;7.25;;;3.38;;
33475;SDS011;19814;48.224;11.422;2023-08-12T07:06:22;7.43;;;3.10;;
33475;SDS011;19814;48.224;11.422;2023-08-12T07:08:47;6.85;;;3.72;;
33475;SDS011;19814;48.224;11.422;2023-08-12T07:11:13;6.30;;;3.60;;
33475;SDS011;19814;48.224;11.422;2023-08-12T07:13:38;6.15;;;3.38;;
33475;SDS011;19814;48.224;11.422;2023-08-12T07:16:04;6.07;;;3.42;;
33475;SDS011;19814;48.224;11.422;2023-08-12T07:18:29;5.13;;;3.22;;
33475;SDS011;19814;48.224;11.422;2023-08-12T07:20:56;7.10;;;2.83;;
33475;SDS011;19814;48.224;11.422;2023-08-12T07:23:23;5.63;;;3.00;;
33475;SDS011;19814;48.224;11.422;2023-08-12T07:25:49;5.47;;;3.38;;
33475;SDS011;19814;48.224;11.422;2023-08-12T07:28:15;4.70;;;2.92;;
33475;SDS011;19814;48.224;11.422;2023-08-12T07:30:40;5.10;;;3.20;;
33475;SDS011;19814;48.224;11.422;2023-08-12T07:33:06;4.63;;;3.05;;
33475;SDS011;19814;48.224;11.422;2023-08-12T07:35:32;4.32;;;2.88;;
33475;SDS011;19814;48.224;11.422;2023-08-12T07:37:58;3.85;;;2.67;;
33475;SDS011;19814;48.224;11.422;2023-08-12T07:40:24;4.15;;;2.63;;
33475;SDS011;19814;48.224;11.422;2023-08-12T07:42:49;4.03;;;2.50;;
33475;SDS011;19814;48.224;11.422;2023-08-12T07:45:15;5.53;;;2.92;;
33475;SDS011;19814;48.224;11.422;2023-08-12T07:47:40;3.97;;;2.80;;
33475;SDS011;19814;48.224;11.422;2023-08-12T07:50:06;4.63;;;2.72;;
33475;SDS011;19814;48.224;11.422;2023-08-12T07:52:32;4.43;;;2.90;;
33475;SDS011;19814;48.224;11.422;2023-08-12T07:54:58;6.05;;;3.00;;
33475;SDS011;19814;48.224;11.422;2023-08-12T07:57:23;4.45;;;2.60;;
33475;SDS011;19814;48.224;11.422;2023-08-12T07:59:52;6.35;;;3.20;;
33475;SDS011;19814;48.224;11.422;2023-08-12T08:02:18;4.88;;;2.80;;
33475;SDS011;19814;48.224;11.422;2023-08-12T08:04:43;4.82;;;2.72;;
33475;SDS011;19814;48.224;11.422;2023-08-12T08:07:09;4.65;;;2.50;;
33475;SDS011;19814;48.224;11.422;2023-08-12T08:09:35;4.55;;;2.55;;
33475;SDS011;19814;48.224;11.422;2023-08-12T08:12:01;4.40;;;2.60;;
33475;SDS011;19814;48.224;11.422;2023-08-12T08:14:26;6.03;;;2.72;;
33475;SDS011;19814;48.224;11.422;2023-08-12T08:16:52;5.53;;;2.53;;
33475;SDS011;19814;48.224;11.422;2023-08-12T08:19:18;4.70;;;2.83;;
33475;SDS011;19814;48.224;11.422;2023-08-12T08:21:44;3.70;;;2.42;;
33475;SDS011;19814;48.224;11.422;2023-08-12T08:24:10;4.78;;;2.97;;
33475;SDS011;19814;48.224;11.422;2023-08-12T08:26:37;3.53;;;2.55;;
33475;SDS011;19814;48.224;11.422;2023-08-12T08:29:03;4.13;;;2.95;;
33475;SDS011;19814;48.224;11.422;2023-08-12T08:31:29;5.53;;;2.67;;
33475;SDS011;19814;48.224;11.422;2023-08-12T08:33:54;4.47;;;3.00;;
33475;SDS011;19814;48.224;11.422;2023-08-12T08:36:20;4.50;;;2.30;;
33475;SDS011;19814;48.224;11.422;2023-08-12T08:38:45;4.18;;;2.42;;
33475;SDS011;19814;48.224;11.422;2023-08-12T08:41:11;3.63;;;2.53;;
33475;SDS011;19814;48.224;11.422;2023-08-12T08:43:37;4.35;;;2.60;;
33475;SDS011;19814;48.224;11.422;2023-08-12T08:46:08;4.90;;;3.00;;
33475;SDS011;19814;48.224;11.422;2023-08-12T08:48:35;5.80;;;2.50;;
33475;SDS011;19814;48.224;11.422;2023-08-12T08:51:01;4.18;;;2.60;;
33475;SDS011;19814;48.224;11.422;2023-08-12T08:53:28;4.05;;;2.72;;
33475;SDS011;19814;48.224;11.422;2023-08-12T08:55:53;4.68;;;2.92;;
33475;SDS011;19814;48.224;11.422;2023-08-12T08:58:20;4.32;;;2.60;;
33475;SDS011;19814;48.224;11.422;2023-08-12T09:00:46;3.90;;;2.70;;
33475;SDS011;19814;48.224;11.422;2023-08-12T09:03:12;5.25;;;3.00;;
33475;SDS011;19814;48.224;11.422;2023-08-12T09:05:39;5.00;;;2.88;;
33475;SDS011;19814;48.224;11.422;2023-08-12T09:08:06;4.35;;;2.88;;
33475;SDS011;19814;48.224;11.422;2023-08-12T09:10:35;4.20;;;2.70;;
33475;SDS011;19814;48.224;11.422;2023-08-12T09:13:03;4.32;;;2.75;;
33475;SDS011;19814;48.224;11.422;2023-08-12T09:15:29;4.07;;;2.67;;
33475;SDS011;19814;48.224;11.422;2023-08-12T09:17:55;4.15;;;2.75;;
33475;SDS011;19814;48.224;11.422;2023-08-12T09:20:20;4.50;;;2.97;;
33475;SDS011;19814;48.224;11.422;2023-08-12T09:22:46;4.35;;;2.80;;
33475;SDS011;19814;48.224;11.422;2023-08-12T09:25:22;4.18;;;2.55;;
33475;SDS011;19814;48.224;11.422;2023-08-12T09:27:48;5.38;;;3.33;;
33475;SDS011;19814;48.224;11.422;2023-08-12T09:30:14;4.65;;;2.75;;
33475;SDS011;19814;48.224;11.422;2023-08-12T09:32:39;3.95;;;2.70;;
33475;SDS011;19814;48.224;11.422;2023-08-12T09:35:05;3.70;;;2.40;;
33475;SDS011;19814;48.224;11.422;2023-08-12T09:37:40;3.50;;;2.58;;
33475;SDS011;19814;48.224;11.422;2023-08-12T09:40:06;4.47;;;2.97;;
33475;SDS011;19814;48.224;11.422;2023-08-12T09:42:33;4.38;;;2.58;;
33475;SDS011;19814;48.224;11.422;2023-08-12T09:44:59;5.88;;;2.90;;
33475;SDS011;19814;48.224;11.422;2023-08-12T09:47:25;4.65;;;2.97;;
33475;SDS011;19814;48.224;11.422;2023-08-12T09:49:52;4.72;;;2.72;;
33475;SDS011;19814;48.224;11.422;2023-08-12T09:52:17;4.28;;;2.47;;
33475;SDS011;19814;48.224;11.422;2023-08-12T09:54:43;4.10;;;2.72;;
33475;SDS011;19814;48.224;11.422;2023-08-12T09:57:10;4.13;;;2.80;;
33475;SDS011;19814;48.224;11.422;2023-08-12T09:59:39;4.60;;;3.08;;
33475;SDS011;19814;48.224;11.422;2023-08-12T10:02:06;5.30;;;3.40;;
33475;SDS011;19814;48.224;11.422;2023-08-12T10:04:41;4.47;;;3.03;;
33475;SDS011;19814;48.224;11.422;2023-08-12T10:07:10;5.35;;;2.95;;
33475;SDS011;19814;48.224;11.422;2023-08-12T10:09:39;4.00;;;2.83;;
33475;SDS011;19814;48.224;11.422;2023-08-12T10:12:05;5.30;;;2.97;;
33475;SDS011;19814;48.224;11.422;2023-08-12T10:14:34;3.88;;;2.67;;
33475;SDS011;19814;48.224;11.422;2023-08-12T10:17:00;4.68;;;2.90;;
33475;SDS011;19814;48.224;11.422;2023-08-12T10:19:26;5.57;;;3.10;;
33475;SDS011;19814;48.224;11.422;2023-08-12T10:21:54;6.47;;;2.90;;
33475;SDS011;19814;48.224;11.422;2023-08-12T10:24:24;4.47;;;3.22;;
33475;SDS011;19814;48.224;11.422;2023-08-12T10:26:51;3.83;;;2.55;;
33475;SDS011;19814;48.224;11.422;2023-08-12T10:29:18;4.07;;;2.45;;
33475;SDS011;19814;48.224;11.422;2023-08-12T10:31:45;4.03;;;2.78;;
33475;SDS011;19814;48.224;11.422;2023-08-12T10:36:43;4.00;;;2.95;;
33475;SDS011;19814;48.224;11.422;2023-08-12T10:39:09;5.00;;;3.00;;
33475;SDS011;19814;48.224;11.422;2023-08-12T10:41:35;4.72;;;3.20;;
33475;SDS011;19814;48.224;11.422;2023-08-12T10:44:01;4.97;;;2.80;;
33475;SDS011;19814;48.224;11.422;2023-08-12T10:51:44;3.70;;;2.20;;
33475;SDS011;19814;48.224;11.422;2023-08-12T10:57:03;4.97;;;2.73;;
33475;SDS011;19814;48.224;11.422;2023-08-12T11:02:16;6.53;;;2.60;;
33475;SDS011;19814;48.224;11.422;2023-08-12T11:05:02;5.28;;;2.72;;
33475;SDS011;19814;48.224;11.422;2023-08-12T11:07:41;3.15;;;2.10;;
33475;SDS011;19814;48.224;11.422;2023-08-12T11:10:24;3.95;;;2.53;;
33475;SDS011;19814;48.224;11.422;2023-08-12T11:15:16;4.30;;;2.70;;
33475;SDS011;19814;48.224;11.422;2023-08-12T11:17:42;4.00;;;2.50;;
33475;SDS011;19814;48.224;11.422;2023-08-12T11:20:11;7.30;;;2.50;;
33475;SDS011;19814;48.224;11.422;2023-08-12T11:22:41;3.80;;;2.45;;
33475;SDS011;19814;48.224;11.422;2023-08-12T11:25:08;3.42;;;2.40;;
33475;SDS011;19814;48.224;11.422;2023-08-12T11:27:36;4.88;;;2.38;;
33475;SDS011;19814;48.224;11.422;2023-08-12T11:30:15;2.97;;;2.22;;
33475;SDS011;19814;48.224;11.422;2023-08-12T11:32:43;4.25;;;2.55;;
33475;SDS011;19814;48.224;11.422;2023-08-12T11:35:13;3.33;;;2.40;;
33475;SDS011;19814;48.224;11.422;2023-08-12T11:37:41;3.83;;;2.80;;
33475;SDS011;19814;48.224;11.422;2023-08-12T11:40:11;3.50;;;2.50;;
33475;SDS011;19814;48.224;11.422;2023-08-12T11:42:39;3.63;;;2.35;;
33475;SDS011;19814;48.224;11.422;2023-08-12T11:45:06;3.72;;;2.40;;
33475;SDS011;19814;48.224;11.422;2023-08-12T11:47:33;3.58;;;2.55;;
33475;SDS011;19814;48.224;11.422;2023-08-12T11:50:01;3.38;;;2.40;;
33475;SDS011;19814;48.224;11.422;2023-08-12T11:52:28;3.85;;;2.45;;
33475;SDS011;19814;48.224;11.422;2023-08-12T11:54:54;3.75;;;2.38;;
33475;SDS011;19814;48.224;11.422;2023-08-12T11:57:21;3.88;;;2.42;;
33475;SDS011;19814;48.224;11.422;2023-08-12T11:59:48;4.25;;;2.40;;
33475;SDS011;19814;48.224;11.422;2023-08-12T12:02:14;2.90;;;2.05;;
33475;SDS011;19814;48.224;11.422;2023-08-12T12:04:41;3.42;;;2.00;;
33475;SDS011;19814;48.224;11.422;2023-08-12T12:07:17;3.70;;;2.30;;
33475;SDS011;19814;48.224;11.422;2023-08-12T12:09:44;4.13;;;2.40;;
33475;SDS011;19814;48.224;11.422;2023-08-12T12:12:10;2.95;;;1.95;;
33475;SDS011;19814;48.224;11.422;2023-08-12T12:14:35;3.72;;;2.13;;
33475;SDS011;19814;48.224;11.422;2023-08-12T12:17:06;3.42;;;2.13;;
33475;SDS011;19814;48.224;11.422;2023-08-12T12:19:35;2.53;;;2.00;;
33475;SDS011;19814;48.224;11.422;2023-08-12T12:22:02;4.03;;;1.95;;
33475;SDS011;19814;48.224;11.422;2023-08-12T12:24:30;2.80;;;2.10;;
33475;SDS011;19814;48.224;11.422;2023-08-12T12:26:56;2.80;;;1.90;;
33475;SDS011;19814;48.224;11.422;2023-08-12T12:29:22;4.43;;;2.35;;
33475;SDS011;19814;48.224;11.422;2023-08-12T12:31:47;3.05;;;1.85;;
33475;SDS011;19814;48.224;11.422;2023-08-12T12:34:13;2.58;;;1.83;;
33475;SDS011;19814;48.224;11.422;2023-08-12T12:36:39;2.58;;;2.05;;
33475;SDS011;19814;48.224;11.422;2023-08-12T12:39:06;3.45;;;1.88;;
33475;SDS011;19814;48.224;11.422;2023-08-12T12:41:33;2.92;;;1.98;;
33475;SDS011;19814;48.224;11.422;2023-08-12T12:44:01;2.58;;;1.88;;
33475;SDS011;19814;48.224;11.422;2023-08-12T12:46:27;2.63;;;2.00;;
33475;SDS011;19814;48.224;11.422;2023-08-12T12:48:53;3.25;;;2.17;;
33475;SDS011;19814;48.224;11.422;2023-08-12T12:51:19;3.28;;;2.03;;
33475;SDS011;19814;48.224;11.422;2023-08-12T12:53:44;3.15;;;1.70;;
33475;SDS011;19814;48.224;11.422;2023-08-12T12:56:10;4.55;;;2.20;;
33475;SDS011;19814;48.224;11.422;2023-08-12T12:58:36;2.50;;;1.70;;
33475;SDS011;19814;48.224;11.422;2023-08-12T13:01:03;4.30;;;2.00;;
33475;SDS011;19814;48.224;11.422;2023-08-12T13:03:29;7.32;;;2.35;;
33475;SDS011;19814;48.224;11.422;2023-08-12T13:05:56;3.38;;;1.60;;
33475;SDS011;19814;48.224;11.422;2023-08-12T13:08:22;5.80;;;2.08;;
33475;SDS011;19814;48.224;11.422;2023-08-12T13:10:47;9.40;;;2.15;;
33475;SDS011;19814;48.224;11.422;2023-08-12T13:13:16;6.57;;;2.00;;
33475;SDS011;19814;48.224;11.422;2023-08-12T13:18:08;2.65;;;1.60;;
33475;SDS011;19814;48.224;11.422;2023-08-12T13:20:34;8.20;;;1.73;;
33475;SDS011;19814;48.224;11.422;2023-08-12T13:23:00;3.35;;;1.98;;
33475;SDS011;19814;48.224;11.422;2023-08-12T13:25:35;3.67;;;1.80;;
33475;SDS011;19814;48.224;11.422;2023-08-12T13:28:01;3.83;;;1.65;;
33475;SDS011;19814;48.224;11.422;2023-08-12T13:30:27;3.47;;;1.77;;
33475;SDS011;19814;48.224;11.422;2023-08-12T13:32:53;3.13;;;1.92;;
33475;SDS011;19814;48.224;11.422;2023-08-12T13:35:19;2.70;;;2.10;;
33475;SDS011;19814;48.224;11.422;2023-08-12T13:37:45;5.05;;;2.10;;
33475;SDS011;19814;48.224;11.422;2023-08-12T13:40:11;4.72;;;2.10;;
33475;SDS011;19814;48.224;11.422;2023-08-12T13:42:36;3.10;;;2.05;;
33475;SDS011;19814;48.224;11.422;2023-08-12T13:45:03;4.95;;;1.90;;
33475;SDS011;19814;48.224;11.422;2023-08-12T13:47:29;2.80;;;1.88;;
33475;SDS011;19814;48.224;11.422;2023-08-12T13:49:55;3.05;;;2.10;;
33475;SDS011;19814;48.224;11.422;2023-08-12T13:52:20;4.22;;;2.15;;
33475;SDS011;19814;48.224;11.422;2023-08-12T13:54:46;2.67;;;1.90;;
33475;SDS011;19814;48.224;11.422;2023-08-12T13:57:11;3.53;;;2.17;;
33475;SDS011;19814;48.224;11.422;2023-08-12T13:59:37;3.78;;;2.38;;
33475;SDS011;19814;48.224;11.422;2023-08-12T14:02:03;3.88;;;2.65;;
33475;SDS011;19814;48.224;11.422;2023-08-12T14:04:28;3.17;;;1.90;;
33475;SDS011;19814;48.224;11.422;2023-08-12T14:06:54;4.50;;;2.65;;
33475;SDS011;19814;48.224;11.422;2023-08-12T14:09:19;3.25;;;2.20;;
33475;SDS011;19814;48.224;11.422;2023-08-12T14:11:45;3.35;;;2.28;;
33475;SDS011;19814;48.224;11.422;2023-08-12T14:14:10;4.38;;;2.65;;
33475;SDS011;19814;48.224;11.422;2023-08-12T14:16:36;3.70;;;2.40;;
33475;SDS011;19814;48.224;11.422;2023-08-12T14:19:02;6.55;;;2.65;;
33475;SDS011;19814;48.224;11.422;2023-08-12T14:21:27;4.55;;;2.45;;
33475;SDS011;19814;48.224;11.422;2023-08-12T14:23:53;3.45;;;2.38;;
33475;SDS011;19814;48.224;11.422;2023-08-12T14:26:18;3.28;;;2.60;;
33475;SDS011;19814;48.224;11.422;2023-08-12T14:28:44;4.32;;;2.40;;
33475;SDS011;19814;48.224;11.422;2023-08-12T14:31:09;3.97;;;2.30;;
33475;SDS011;19814;48.224;11.422;2023-08-12T14:33:35;4.13;;;2.50;;
33475;SDS011;19814;48.224;11.422;2023-08-12T14:36:02;3.58;;;2.30;;
33475;SDS011;19814;48.224;11.422;2023-08-12T14:38:28;3.08;;;2.17;;
33475;SDS011;19814;48.224;11.422;2023-08-12T14:40:53;4.40;;;2.38;;
33475;SDS011;19814;48.224;11.422;2023-08-12T14:43:19;3.35;;;2.20;;
33475;SDS011;19814;48.224;11.422;2023-08-12T14:45:45;4.55;;;2.63;;
33475;SDS011;19814;48.224;11.422;2023-08-12T14:48:13;4.82;;;2.72;;
33475;SDS011;19814;48.224;11.422;2023-08-12T14:50:40;6.40;;;2.30;;